• Join FlightAware (Why Join?)
  • Login
  • US Flag 
11:07AM EST


 

Airport Tracker/Info


-or-


 

Live Flight TrackerFlight Track Log ✈ TCF6008 ✈ 25-Apr-2013 ✈ KMKE - KLGA

Flight Track Log - Related Links

Times and Time Zones

All times are in EDT time to prevent confusion due to time zone crossing. See the TCF6008 flight status page for this flight to view local times or setup timezone preferences in your user account.

Time Position Orientation Groundspeed Altitude Reporting Facility
EDT Latitude Longitude Course Direction KTS MPH feet Rate Location/Type
07:54PM 42.9333 -87.9333 200° South 154 177 1,800  Level KMKE
07:55PM 42.8833 -87.9167 166° South 245 282 4,300 1,920 Climbing KMKE
07:56PM 42.8467 -87.8408 123° Southeast 262 302 6,500 2,400 Climbing Chicago Center
07:57PM 42.8881 -87.2609 185° South  Level Estimated
07:57PM 42.7747 -87.8086 162° South 284 327 9,000  Level Chicago Center
07:58PM 42.8728 -87.1021 180° South  Level Estimated
07:58PM 42.6758 -87.7914 173° South 305 351 12,000  Level Chicago Center
07:59PM 42.8573 -86.9433 200° South  Level Estimated
07:59PM 42.5886 -87.7519 162° South 326 375 14,200  Level Chicago Center
08:00PM 42.5094 -87.7142 161° South 341 392 16,000 1,680 Climbing Chicago Center
08:01PM 42.3933 -87.6594 161° South 367 422 17,700 1,500 Climbing Chicago Center
08:02PM 42.2900 -87.6094 160° South 389 448 19,100 1,440 Climbing Chicago Center
08:04PM 42.1878 -87.5442 155° Southeast 418 481 20,700 1,500 Climbing Chicago Center
08:05PM 42.1403 -87.4081 115° Southeast 416 479 22,200 1,440 Climbing Chicago Center
08:06PM 42.1317 -87.2517 94° East 417 480 23,700 1,440 Climbing Chicago Center
08:07PM 42.1194 -87.0597 95° East 429 494 25,200 1,320 Climbing Chicago Center
08:08PM 42.1086 -86.8953 95° East 441 507 26,500 1,140 Climbing Chicago Center
08:09PM 42.0975 -86.7286 95° East 448 516 27,600 1,020 Climbing Chicago Center
08:10PM 42.0892 -86.5725 94° East 461 531 28,700 1,200 Climbing Chicago Center
08:11PM 42.0742 -86.3622 95° East 471 542 30,200 1,140 Climbing Chicago Center
08:12PM 42.0622 -86.1833 95° East 478 550 31,100 900 Climbing Chicago Center
08:13PM 42.0492 -86.0006 95° East 487 560 32,100 1,020 Climbing Chicago Center
08:14PM 42.0375 -85.8336 95° East 487 560 33,300 1,080 Climbing Chicago Center
08:15PM 42.0208 -85.6175 96° East 488 562 34,400 780 Climbing Chicago Center
08:16PM 42.0067 -85.4364 96° East 490 564 35,000 360 Climbing Chicago Center
08:16PM 42.0042 -85.3650 93° East 516 594 35,000  Level Cleveland Center
08:17PM 41.9908 -85.1822 96° East 528 608 35,000  Level Cleveland Center
08:18PM 41.9750 -84.9994 97° East 505 581 35,000  Level Cleveland Center
08:19PM 41.9611 -84.8169 96° East 494 568 35,000  Level Cleveland Center
08:20PM 41.9425 -84.6342 98° East 488 562 35,000  Level Cleveland Center
08:21PM 41.9322 -84.4547 94° East 488 562 35,000  Level Cleveland Center
08:22PM 41.9114 -84.2583 98° East 488 562 35,000  Level Cleveland Center
08:23PM 41.8944 -84.0731 97° East 488 562 35,000  Level Cleveland Center
08:24PM 41.8767 -83.8936 98° East 488 562 35,000  Level Cleveland Center
08:25PM 41.8631 -83.7117 96° East 488 562 35,000  Level Cleveland Center
08:26PM 41.8450 -83.5322 98° East 488 562 35,000  Level Cleveland Center
08:27PM 41.8322 -83.3700 96° East 488 562 35,000  Level Cleveland Center
08:28PM 41.8136 -83.1881 98° East 488 562 35,000  Level Cleveland Center
08:29PM 41.7947 -83.0092 98° East 488 562 35,000  Level Cleveland Center
08:30PM 41.7775 -82.8275 97° East 488 562 35,000  Level Cleveland Center
08:31PM 41.7600 -82.6486 97° East 488 562 35,000  Level Cleveland Center
08:32PM 41.7422 -82.4700 98° East 482 555 35,000  Level Cleveland Center
08:33PM 41.7242 -82.2886 98° East 487 560 35,000  Level Cleveland Center
08:34PM 41.7019 -82.0906 98° East 487 560 35,000  Level Cleveland Center
08:35PM 41.6833 -81.9094 98° East 487 560 35,000  Level Cleveland Center
08:36PM 41.6644 -81.7283 98° East 487 560 35,000  Level Cleveland Center
08:37PM 41.6433 -81.5500 99° East 487 560 35,000  Level Cleveland Center
08:38PM 41.6236 -81.3719 98° East 482 555 35,000  Level Cleveland Center
08:39PM 41.6039 -81.2133 99° East 482 555 35,000  Level Cleveland Center
08:40PM 41.5858 -81.0328 98° East 489 563 35,000  Level Cleveland Center
08:41PM 41.5656 -80.8550 99° East 484 557 35,000  Level Cleveland Center
08:42PM 41.5450 -80.6775 99° East 484 557 35,000  Level Cleveland Center
08:43PM 41.5242 -80.5000 99° East 484 557 35,000  Level Cleveland Center
08:44PM 41.4989 -80.3003 100° East 491 565 35,000  Level Cleveland Center
08:45PM 41.4797 -80.1425 99° East 496 571 35,000  Level Cleveland Center
08:46PM 41.4558 -79.9625 100° East 496 571 35,000  Level Cleveland Center
08:47PM 41.4339 -79.7800 99° East 491 565 35,000  Level Cleveland Center
08:48PM 41.4117 -79.6003 99° East 491 565 35,000  Level Cleveland Center
08:49PM 41.3892 -79.4208 99° East 486 559 35,000  Level Cleveland Center
08:50PM 41.3642 -79.2414 100° East 486 559 35,000  Level Cleveland Center
08:51PM 41.3411 -79.0592 100° East 486 559 35,000  Level Cleveland Center
08:52PM 41.3178 -78.8772 100° East 486 559 35,000  Level Cleveland Center
08:53PM 41.2942 -78.7011 100° East 486 559 35,000  Level Cleveland Center
08:55PM 41.2422 -78.3458 101° East 490 564 35,000 -720 Level New York Center
08:56PM 41.2158 -78.1689 101° East 495 570 33,000 -1,020 Descending New York Center
08:57PM 41.1936 -77.9872 99° East 495 570 33,000  Level New York Center
08:58PM 41.1731 -77.8114 99° East 495 570 33,000  Level New York Center
08:59PM 41.1503 -77.6325 100° East 490 564 33,000  Level New York Center
09:00PM 41.1272 -77.4511 100° East 490 564 33,000  Level New York Center
09:01PM 41.1003 -77.2583 100° East 490 564 33,000 -1,200 Level New York Center
09:02PM 41.0767 -77.0772 100° East 490 564 30,700 -2,460 Descending New York Center
09:03PM 41.0528 -76.8989 100° East 490 564 28,100 -2,640 Descending New York Center
09:04PM 41.0283 -76.7233 100° East 490 564 25,500 -2,520 Descending New York Center
09:05PM 40.9969 -76.5583 104° East 478 550 23,100 -2,400 Descending New York Center
09:06PM 40.9586 -76.4039 108° East 457 526 20,800 -2,400 Descending New York Center
09:07PM 40.9239 -76.2581 107° East 426 490 18,300 -2,100 Descending New York Center
09:08PM 40.8889 -76.1125 108° East 412 474 16,600 -1,560 Descending New York Center
09:09PM 40.8553 -75.9756 108° East 407 468 15,200 -1,440 Descending New York Center
09:10PM 40.8217 -75.8386 108° East 401 461 13,800 -1,140 Descending New York Center
09:11PM 40.7933 -75.7186 107° East 389 448 13,000 -420 Descending New York Center
09:12PM 40.7611 -75.5903 108° East 378 435 13,000  Level New York Center
09:13PM 40.7292 -75.4564 107° East 378 435 13,000  Level New York Center
09:14PM 40.6953 -75.3064 107° East 384 442 13,000  Level New York Center
09:15PM 40.6728 -75.1844 104° East 384 442 13,000 -1,080 Level New York Center
09:16PM 40.6103 -75.0739 127° Southeast 355 409 10,900 -1,500 Descending New York Center
09:17PM 40.5614 -74.9833 125° Southeast 325 374 10,000 -480 Descending New York Center
09:18PM 40.5297 -74.8803 112° Southeast 305 351 10,000  Level New York Center
09:19PM 40.5167 -74.8500 120° Southeast 306 352 10,000  Level New York TRACON
09:20PM 40.4833 -74.7333 111° Southeast 307 353 10,000  Level New York TRACON
09:21PM 40.4500 -74.6333 114° Southeast 306 352 10,000  Level New York TRACON
09:22PM 40.4333 -74.5333 102° East 306 352 10,000 -600 Level New York TRACON
09:23PM 40.4500 -74.4333 78° East 301 346 8,900 -1,020 Descending New York TRACON
09:24PM 40.4833 -74.3167 69° East 294 338 8,000 -480 Descending New York TRACON
09:25PM 40.5167 -74.2167 66° East 293 337 8,000 -600 Level New York TRACON
09:26PM 40.5333 -74.1167 78° East 286 329 6,900 -1,500 Descending New York TRACON
09:27PM 40.5833 -74.0500 45° Northeast 286 329 5,100 -1,560 Descending New York TRACON
09:28PM 40.6500 -74.0333 11° North 263 303 4,000 -600 Descending New York TRACON
09:29PM 40.7167 -74.0167 11° North 249 287 4,000  Level New York TRACON
09:30PM 40.7833 -74.0000 11° North 228 262 4,000  Level New York TRACON
09:31PM 40.8333 -73.9667 27° Northeast 228 262 4,000  Level New York TRACON
09:32PM 40.9000 -73.9333 21° North 229 264 4,000  Level New York TRACON
09:33PM 40.9500 -73.8833 37° Northeast 201 231 4,000  Level New York TRACON
09:34PM 41.0000 -73.8333 37° Northeast 199 229 4,000 -480 Level New York TRACON
09:35PM 40.9833 -73.7833 114° Southeast 194 223 3,000 -540 Descending New York TRACON
09:36PM 40.9333 -73.7667 166° South 185 213 3,000 -360 Level New York TRACON
09:37PM 40.8833 -73.7833 194° South 173 199 2,300 -780 Descending New York TRACON
09:38PM 40.8500 -73.8167 217° Southwest 153 176 1,500 -780 Descending New York TRACON
09:39PM 40.8167 -73.8500 217° Southwest 118 136 800 -720 Descending New York TRACON